Time;durP1;ratioP1;P1;durP2;ratioP2;P2;SDS_P1;SDS_P2;PMS_P1;PMS_P2;Temp;Humidity;BMP_temperature;BMP_pressure;BME280_temperature;BME280_humidity;BME280_pressure;Samples;Min_cycle;Max_cycle;Signal;HPM_P1;HPM_P2
2021/04/26 00:00:38;;;;;;;5.62;3.10;;;;;;;2.94;84.82;99435.84;1743105;81;21343;-59
2021/04/26 00:03:06;;;;;;;4.47;2.70;;;;;;;2.89;84.95;99437.19;1752547;80;21148;-58
2021/04/26 00:05:35;;;;;;;5.30;2.98;;;;;;;2.81;85.37;99436.38;1754768;81;20964;-59
2021/04/26 00:08:04;;;;;;;6.83;3.27;;;;;;;2.73;85.56;99435.55;1777921;80;20926;-58
2021/04/26 00:10:33;;;;;;;8.00;3.00;;;;;;;2.64;85.83;99430.64;1731840;82;20948;-58
2021/04/26 00:13:00;;;;;;;6.37;2.83;;;;;;;2.56;86.13;99428.45;1773462;80;23584;-58
2021/04/26 00:15:30;;;;;;;4.97;2.55;;;;;;;2.48;86.39;99428.95;1731748;82;21033;-58
2021/04/26 00:17:59;;;;;;;5.45;3.00;;;;;;;2.44;86.98;99429.75;1762063;81;21012;-58
2021/04/26 00:20:29;;;;;;;5.80;3.20;;;;;;;2.41;87.24;99439.77;1762102;81;21010;-58
2021/04/26 00:22:59;;;;;;;5.75;3.02;;;;;;;2.38;87.62;99434.34;1762141;81;21036;-58
2021/04/26 00:25:28;;;;;;;5.45;3.15;;;;;;;2.33;87.91;99437.02;1762097;81;23515;-58
2021/04/26 00:27:57;;;;;;;5.50;2.40;;;;;;;2.28;88.09;99437.03;1762083;81;21185;-58
2021/04/26 00:30:25;;;;;;;6.87;2.70;;;;;;;2.26;88.43;99429.70;1762154;80;20955;-58
2021/04/26 00:32:53;;;;;;;7.75;2.85;;;;;;;2.25;88.48;99438.91;1762182;81;21495;-58
2021/04/26 00:35:21;;;;;;;4.17;2.33;;;;;;;2.20;88.81;99438.34;1759312;81;21065;-58
2021/04/26 00:37:51;;;;;;;4.58;2.58;;;;;;;2.16;88.86;99433.17;1758861;81;20947;-58
2021/04/26 00:40:20;;;;;;;5.20;2.52;;;;;;;2.12;89.13;99434.78;1758859;81;21564;-58
2021/04/26 00:42:49;;;;;;;3.42;2.30;;;;;;;2.09;89.29;99430.43;1758955;81;21132;-58
2021/04/26 00:45:20;;;;;;;6.15;3.45;;;;;;;2.09;89.42;99439.91;1758954;81;21115;-58
2021/04/26 00:47:48;;;;;;;3.15;2.02;;;;;;;2.10;89.47;99446.41;1759238;81;21013;-59
2021/04/26 00:50:23;;;;;;;4.00;2.40;;;;;;;2.12;89.62;99454.28;1758872;81;21199;-58
2021/04/26 00:52:51;;;;;;;4.22;2.20;;;;;;;2.14;89.71;99437.23;1758829;81;20942;-58
2021/04/26 00:55:26;;;;;;;5.95;2.70;;;;;;;2.15;89.70;99432.09;1758854;80;21006;-58
2021/04/26 00:57:54;;;;;;;5.70;2.67;;;;;;;2.15;89.78;99425.31;1758910;80;20930;-58
2021/04/26 01:00:23;;;;;;;5.95;2.70;;;;;;;2.13;89.98;99414.75;1739870;81;20942;-59
2021/04/26 01:02:51;;;;;;;4.12;2.77;;;;;;;2.12;90.06;99413.66;1758876;81;21332;-58
2021/04/26 01:05:22;;;;;;;9.88;2.95;;;;;;;2.09;90.29;99403.35;1758848;81;20946;-58
2021/04/26 01:07:50;;;;;;;5.05;2.60;;;;;;;2.06;90.56;99404.69;1759009;81;21525;-59
2021/04/26 01:10:22;;;;;;;5.45;3.17;;;;;;;2.04;90.80;99415.51;1758883;81;21140;-59
2021/04/26 01:13:25;;;;;;;4.60;2.47;;;;;;;2.02;90.86;99419.83;1739560;81;20950;-59
2021/04/26 01:16:15;;;;;;;;;;;;;;;2.02;91.11;99421.19;1761289;81;21334;-58
2021/04/26 01:19:25;;;;;;;4.60;3.10;;;;;;;2.04;91.45;99426.34;1750539;80;20117;-58
2021/04/26 01:22:33;;;;;;;7.58;3.00;;;;;;;2.05;91.74;99413.89;1750556;82;20926;-58
2021/04/26 01:25:15;;;;;;;5.35;2.90;;;;;;;2.10;91.90;99413.11;1750551;80;20929;-59
2021/04/26 01:27:48;;;;;;;5.33;2.83;;;;;;;2.11;92.05;99399.30;1750673;82;21000;-59
2021/04/26 01:30:48;;;;;;;5.62;2.70;;;;;;;2.11;92.30;99399.30;1740739;80;22375;-59
2021/04/26 01:33:23;;;;;;;3.60;2.35;;;;;;;2.10;92.31;99404.44;1756984;81;21029;-59
2021/04/26 01:35:57;;;;;;;4.55;2.60;;;;;;;2.11;92.34;99408.78;1758988;80;21456;-59
2021/04/26 01:38:32;;;;;;;6.05;3.50;;;;;;;2.10;92.38;99409.05;1716857;82;21508;-59
2021/04/26 01:41:00;;;;;;;4.85;3.12;;;;;;;2.10;92.43;99404.44;1762308;80;21537;-59
2021/04/26 01:43:28;;;;;;;7.17;2.72;;;;;;;2.09;92.48;99403.35;1717438;82;21227;-59
2021/04/26 01:45:59;;;;;;;5.70;2.95;;;;;;;2.08;92.52;99411.20;1762240;80;21178;-59
2021/04/26 01:48:30;;;;;;;5.75;2.95;;;;;;;2.05;92.57;99407.66;1762253;81;21148;-59
2021/04/26 01:50:59;;;;;;;6.58;2.90;;;;;;;2.01;92.84;99396.55;1762373;81;21017;-59
2021/04/26 01:53:27;;;;;;;5.78;3.55;;;;;;;1.98;92.98;99386.23;1762169;81;21148;-59
2021/04/26 01:56:00;;;;;;;5.80;3.35;;;;;;;1.97;93.15;99381.36;1762234;80;21188;-59
2021/04/26 01:58:30;;;;;;;5.25;3.75;;;;;;;1.95;93.27;99376.75;1762238;81;20957;-59
2021/04/26 02:00:59;;;;;;;5.47;3.50;;;;;;;1.95;93.33;99367.27;1762159;81;21098;-59
2021/04/26 02:03:27;;;;;;;5.95;3.40;;;;;;;1.95;93.38;99367.27;1762315;81;21635;-59
2021/04/26 02:06:03;;;;;;;6.70;3.72;;;;;;;1.94;93.47;99369.70;1762183;81;20938;-59
2021/04/26 02:08:33;;;;;;;5.42;3.00;;;;;;;1.95;93.56;99362.40;1761272;81;21194;-59
2021/04/26 02:11:01;;;;;;;4.65;3.08;;;;;;;1.97;93.67;99362.95;1762261;80;21516;-59
2021/04/26 02:13:29;;;;;;;6.50;3.42;;;;;;;1.99;93.79;99348.07;1762112;81;20978;-59
2021/04/26 02:15:58;;;;;;;5.47;3.30;;;;;;;2.00;93.80;99338.06;1722979;81;21583;-59
2021/04/26 02:18:26;;;;;;;4.75;3.12;;;;;;;2.01;93.88;99319.38;1762217;81;21179;-59
2021/04/26 02:20:53;;;;;;;5.20;2.85;;;;;;;2.01;93.93;99327.50;1762243;81;21202;-59
2021/04/26 02:23:21;;;;;;;4.35;2.30;;;;;;;2.05;94.14;99319.66;1762180;81;21520;-59
2021/04/26 02:25:49;;;;;;;9.30;2.92;;;;;;;2.05;93.95;99312.36;1747050;81;21144;-59
2021/04/26 02:28:18;;;;;;;4.37;2.67;;;;;;;2.05;93.74;99300.17;1762292;81;21624;-59
2021/04/26 02:30:49;;;;;;;4.72;2.98;;;;;;;2.01;93.72;99294.20;1762235;81;21128;-59
2021/04/26 02:33:21;;;;;;;6.62;2.47;;;;;;;1.96;93.76;99281.45;1762077;81;22130;-59
2021/04/26 02:36:11;;;;;;;5.30;2.90;;;;;;;1.89;93.85;99289.83;1741794;81;21084;-59
2021/04/26 02:38:50;;;;;;;4.00;2.60;;;;;;;1.88;94.13;99263.83;1873630;76;22689;-58
2021/04/26 02:41:32;;;;;;;4.37;2.60;;;;;;;1.79;94.21;99265.96;1811550;78;21180;-58
2021/04/26 02:44:08;;;;;;;3.83;2.47;;;;;;;1.74;94.51;99274.06;1841056;78;21379;-58
2021/04/26 02:46:38;;;;;;;4.15;2.33;;;;;;;1.70;94.84;99286.52;1840951;78;21019;-58
2021/04/26 02:49:08;;;;;;;5.03;2.77;;;;;;;1.66;95.01;99287.59;1841686;78;20946;-58
2021/04/26 02:51:38;;;;;;;3.47;2.52;;;;;;;1.65;95.24;99288.66;1841641;78;20920;-58
2021/04/26 02:54:07;;;;;;;4.75;2.65;;;;;;;1.64;95.21;99282.98;1841821;77;21443;-58
2021/04/26 02:56:38;;;;;;;7.12;2.83;;;;;;;1.62;95.18;99279.72;1841651;78;21188;-58
2021/04/26 02:59:08;;;;;;;5.33;2.22;;;;;;;1.65;95.32;99285.95;1841735;77;20897;-59
2021/04/26 03:01:40;;;;;;;4.60;2.67;;;;;;;1.69;95.44;99290.31;1841701;77;20929;-59
2021/04/26 03:04:20;;;;;;;3.92;2.47;;;;;;;1.74;95.60;99284.34;1813757;78;21637;-58
2021/04/26 03:06:51;;;;;;;7.10;2.12;;;;;;;1.82;95.61;99278.42;1841778;78;21558;-58
2021/04/26 03:09:29;;;;;;;6.28;2.33;;;;;;;1.87;95.47;99275.74;1823500;78;21379;-59
2021/04/26 03:11:59;;;;;;;3.92;2.02;;;;;;;1.90;95.33;99276.56;1833770;78;21010;-59
2021/04/26 03:14:29;;;;;;;2.83;1.95;;;;;;;1.92;95.16;99282.53;1806815;79;21023;-59
2021/04/26 03:16:57;;;;;;;3.35;2.08;;;;;;;1.93;95.02;99287.40;1808545;78;21863;-59
2021/04/26 03:19:26;;;;;;;6.17;2.45;;;;;;;1.92;94.76;99299.31;1711140;79;21459;-59
2021/04/26 03:21:54;;;;;;;4.95;2.70;;;;;;;1.91;94.75;99298.50;1808595;78;21374;-59
2021/04/26 03:24:22;;;;;;;3.75;2.22;;;;;;;1.95;94.88;99310.42;1808540;78;21019;-59
2021/04/26 03:26:51;;;;;;;5.65;2.37;;;;;;;1.96;94.68;99306.63;1779393;79;21000;-59
2021/04/26 03:29:21;;;;;;;6.90;2.20;;;;;;;1.96;94.42;99309.34;1807579;79;21142;-61
2021/04/26 03:31:50;;;;;;;6.45;2.90;;;;;;;1.97;94.31;99308.80;1807629;79;21601;-61
2021/04/26 03:34:19;;;;;;;3.15;2.05;;;;;;;1.98;94.38;99305.83;1807325;79;21194;-59
2021/04/26 03:36:48;;;;;;;5.37;2.50;;;;;;;2.02;94.44;99298.53;1806671;79;21241;-59
2021/04/26 03:39:16;;;;;;;3.77;2.30;;;;;;;2.05;94.39;99292.59;1799583;79;21014;-61
2021/04/26 03:41:44;;;;;;;4.22;2.70;;;;;;;2.08;94.33;99292.87;1799549;79;21779;-59
2021/04/26 03:44:14;;;;;;;5.35;3.00;;;;;;;2.12;94.38;99299.92;1800512;79;21126;-59
2021/04/26 03:47:00;;;;;;;5.95;2.98;;;;;;;2.14;94.33;99298.58;1772047;79;21460;-59
2021/04/26 03:49:47;;;;;;;4.92;2.98;;;;;;;2.19;94.29;99305.36;1800147;79;20936;-60
2021/04/26 03:52:33;;;;;;;5.10;2.77;;;;;;;2.24;94.17;99303.20;1800100;79;20928;-60
2021/04/26 03:55:22;;;;;;;7.33;3.47;;;;;;;2.29;94.00;99313.52;1800064;79;21022;-61
2021/04/26 03:57:50;;;;;;;4.62;3.02;;;;;;;2.31;93.70;99313.25;1800048;79;20999;-60
2021/04/26 04:00:21;;;;;;;5.65;3.25;;;;;;;2.33;93.51;99313.22;1777396;79;21377;-58
2021/04/26 04:02:49;;;;;;;7.85;3.62;;;;;;;2.36;93.31;99311.06;1766500;79;21571;-59
2021/04/26 04:05:20;;;;;;;5.47;3.95;;;;;;;2.37;93.24;99316.22;1713919;83;21573;-59
2021/04/26 04:08:18;;;;;;;5.20;3.90;;;;;;;2.41;93.17;99312.43;1873924;75;27763;-60
2021/04/26 04:10:47;;;;;;;5.45;3.17;;;;;;;2.43;93.19;99310.27;1856145;77;20907;-60
2021/04/26 04:13:27;;;;;;;5.58;3.45;;;;;;;2.49;93.04;99315.42;1827949;77;21283;-60
2021/04/26 04:15:55;;;;;;;5.08;3.08;;;;;;;2.53;93.11;99311.09;1827289;78;20943;-60
2021/04/26 04:18:25;;;;;;;5.33;2.90;;;;;;;2.58;93.11;99317.06;1827282;78;21486;-59
2021/04/26 04:20:53;;;;;;;5.30;3.58;;;;;;;2.60;93.18;99311.66;1826564;78;20991;-60
2021/04/26 04:23:21;;;;;;;6.45;3.75;;;;;;;2.63;93.14;99313.83;1826576;78;21010;-59
2021/04/26 04:25:49;;;;;;;8.68;4.03;;;;;;;2.67;93.01;99318.17;1826520;78;21146;-60
2021/04/26 04:28:17;;;;;;;9.25;4.12;;;;;;;2.68;92.80;99318.98;1826518;78;21536;-59
2021/04/26 04:30:46;;;;;;;7.53;3.85;;;;;;;2.69;92.75;99322.78;1795053;78;21051;-60
2021/04/26 04:33:34;;;;;;;8.60;3.85;;;;;;;2.75;92.86;99323.05;1793235;79;21229;-60
2021/04/26 04:36:21;;;;;;;4.97;3.40;;;;;;;2.85;92.87;99308.70;1829227;76;27737;-60
2021/04/26 04:39:05;;;;;;;5.47;3.35;;;;;;;2.89;92.59;99313.81;1731486;82;21014;-61
2021/04/26 04:41:55;;;;;;;5.65;3.45;;;;;;;2.98;92.04;99313.55;1873437;76;22852;-59
2021/04/26 04:44:23;;;;;;;4.28;2.65;;;;;;;2.96;91.74;99311.65;1841507;78;20972;-58
2021/04/26 04:46:52;;;;;;;5.22;3.08;;;;;;;2.98;91.36;99317.62;1841275;77;21191;-60
2021/04/26 04:49:22;;;;;;;6.15;2.60;;;;;;;2.98;91.12;99324.39;1840687;78;20956;-60
2021/04/26 04:51:49;;;;;;;5.25;3.05;;;;;;;2.97;90.91;99327.65;1811059;78;21554;-62
2021/04/26 04:54:17;;;;;;;4.75;2.45;;;;;;;3.01;90.91;99337.95;1841246;78;20905;-59
2021/04/26 04:56:53;;;;;;;5.97;2.83;;;;;;;3.03;90.64;99330.36;1835188;76;21039;-59
2021/04/26 04:59:21;;;;;;;9.83;3.90;;;;;;;3.05;90.57;99335.78;1826825;78;21242;-60
2021/04/26 05:01:50;;;;;;;6.35;2.83;;;;;;;3.07;90.34;99334.16;1839976;78;20996;-59
2021/04/26 05:04:39;;;;;;;3.30;2.47;;;;;;;3.15;90.20;99329.00;1889996;76;22638;-61
2021/04/26 05:07:19;;;;;;;3.15;2.30;;;;;;;3.12;89.73;99326.83;1860853;77;21450;-60
2021/04/26 05:10:07;;;;;;;5.58;2.85;;;;;;;3.11;89.53;99325.75;1860807;77;22572;-61
2021/04/26 05:12:39;;;;;;;8.90;3.75;;;;;;;3.15;89.68;99329.00;1806962;76;21489;-59
2021/04/26 05:15:09;;;;;;;6.03;3.37;;;;;;;3.16;89.80;99329.28;1812849;79;21580;-60
2021/04/26 05:17:36;;;;;;;6.45;3.92;;;;;;;3.20;89.71;99334.42;1811469;78;20935;-61
2021/04/26 05:20:08;;;;;;;8.98;5.00;;;;;;;3.18;88.60;99339.31;1793232;80;20943;-60
2021/04/26 05:22:37;;;;;;;10.38;3.40;;;;;;;3.15;88.54;99341.21;1801063;78;21190;-60
2021/04/26 05:25:08;;;;;;;4.97;3.05;;;;;;;3.20;88.54;99347.99;1777577;79;21164;-60
2021/04/26 05:27:37;;;;;;;7.12;4.03;;;;;;;3.26;88.82;99345.55;1784646;79;20930;-59
2021/04/26 05:30:07;;;;;;;7.08;3.62;;;;;;;3.35;88.63;99344.45;1821192;77;21107;-60
2021/04/26 05:32:35;;;;;;;5.20;3.40;;;;;;;3.42;88.23;99342.81;1807597;78;20982;-59
2021/04/26 05:35:08;;;;;;;5.00;2.62;;;;;;;3.47;87.71;99341.42;1812024;79;21513;-59
2021/04/26 05:37:37;;;;;;;4.60;2.98;;;;;;;3.50;86.68;99340.33;1798133;78;20941;-59
2021/04/26 05:40:07;;;;;;;4.92;3.17;;;;;;;3.56;86.61;99347.38;1812837;78;21568;-59
2021/04/26 05:42:36;;;;;;;7.03;3.62;;;;;;;3.61;86.27;99345.20;1815723;78;21152;-61
2021/04/26 05:45:07;;;;;;;9.70;3.50;;;;;;;3.65;85.70;99341.66;1793392;80;21104;-59
2021/04/26 05:47:53;;;;;;;6.37;3.60;;;;;;;3.70;85.21;99342.73;1793225;80;21208;-60
2021/04/26 05:50:22;;;;;;;5.97;2.87;;;;;;;3.70;84.58;99340.84;1773226;79;21206;-59
2021/04/26 05:52:53;;;;;;;6.03;3.20;;;;;;;3.70;84.01;99336.77;1794409;79;20986;-59
2021/04/26 05:55:22;;;;;;;8.20;3.67;;;;;;;3.74;84.21;99336.48;1812985;79;20985;-59
2021/04/26 05:57:50;;;;;;;8.90;3.92;;;;;;;3.87;84.78;99335.09;1824889;78;21565;-62
2021/04/26 06:00:20;;;;;;;7.22;3.40;;;;;;;4.06;85.18;99335.27;1815751;78;21269;-60
2021/04/26 06:02:47;;;;;;;4.97;3.08;;;;;;;4.20;84.14;99334.94;1807458;78;21769;-60
2021/04/26 06:05:16;;;;;;;7.55;3.58;;;;;;;4.36;82.90;99329.69;1822302;78;21120;-60
2021/04/26 06:07:43;;;;;;;3.90;3.10;;;;;;;4.47;82.23;99328.55;1809582;78;21128;-60
2021/04/26 06:10:11;;;;;;;5.53;3.08;;;;;;;4.62;83.36;99327.06;1796626;79;21151;-61
2021/04/26 06:12:39;;;;;;;5.87;3.15;;;;;;;4.87;83.23;99325.27;1793890;79;21585;-60
2021/04/26 06:15:08;;;;;;;5.20;2.67;;;;;;;5.10;82.54;99327.27;1807542;78;21065;-60
2021/04/26 06:17:36;;;;;;;5.78;3.00;;;;;;;5.25;80.10;99317.58;1816470;78;21015;-61
2021/04/26 06:20:05;;;;;;;5.92;3.17;;;;;;;5.38;79.01;99319.37;1801388;79;20993;-62
2021/04/26 06:22:32;;;;;;;5.05;2.83;;;;;;;5.38;79.01;99319.37;1802925;78;20995;-61
2021/04/26 06:25:00;;;;;;;4.72;2.62;;;;;;;5.44;77.70;99319.03;1805915;79;21891;-61
2021/04/26 06:27:27;;;;;;;5.60;2.92;;;;;;;5.29;76.35;99321.34;1802695;78;21084;-61
2021/04/26 06:29:56;;;;;;;7.05;2.95;;;;;;;5.08;76.60;99316.39;1806517;79;21136;-61
2021/04/26 06:32:24;;;;;;;5.45;3.55;;;;;;;4.96;77.42;99324.92;1793105;79;21186;-61
2021/04/26 06:34:52;;;;;;;5.90;3.00;;;;;;;5.04;78.55;99317.52;1794323;79;21112;-60
2021/04/26 06:37:19;;;;;;;6.37;2.65;;;;;;;5.20;78.20;99314.89;1822095;78;21198;-60
2021/04/26 06:39:47;;;;;;;3.65;2.62;;;;;;;5.28;77.52;99322.45;1831449;78;20982;-59
2021/04/26 06:42:14;;;;;;;7.75;2.60;;;;;;;5.29;75.54;99313.19;1815265;78;21027;-61
2021/04/26 06:44:42;;;;;;;6.37;3.22;;;;;;;5.29;75.54;99313.19;1807484;78;21184;-60
2021/04/26 06:47:11;;;;;;;4.97;2.92;;;;;;;5.26;76.35;99313.75;1822819;78;21144;-60
2021/04/26 06:49:39;;;;;;;4.65;2.67;;;;;;;5.35;76.35;99318.58;1818616;78;21359;-61
2021/04/26 06:52:07;;;;;;;5.47;2.95;;;;;;;5.76;77.65;99324.42;1814856;79;21980;-59
2021/04/26 06:54:34;;;;;;;6.03;3.05;;;;;;;5.76;77.65;99324.42;1814988;79;21157;-61
2021/04/26 06:57:02;;;;;;;7.47;2.47;;;;;;;5.95;74.90;99330.20;1831030;78;21112;-60
2021/04/26 06:59:30;;;;;;;6.67;2.90;;;;;;;6.00;73.29;99332.05;1814768;79;21639;-61
2021/04/26 07:01:58;;;;;;;3.90;2.60;;;;;;;6.04;73.56;99329.56;1813762;79;21191;-60
2021/04/26 07:04:26;;;;;;;4.92;2.65;;;;;;;6.13;75.01;99328.63;1816607;78;21212;-60
2021/04/26 07:06:54;;;;;;;4.67;2.40;;;;;;;6.34;74.53;99329.73;1816398;78;20994;-60
2021/04/26 07:09:21;;;;;;;4.10;2.30;;;;;;;6.51;70.04;99330.02;1832936;78;21139;-60
2021/04/26 07:11:49;;;;;;;4.22;2.77;;;;;;;6.62;71.15;99324.67;1847786;77;21668;-60
2021/04/26 07:14:18;;;;;;;4.95;2.50;;;;;;;6.81;70.18;99326.84;1811300;79;22420;-60
2021/04/26 07:16:47;;;;;;;6.15;2.70;;;;;;;6.91;67.51;99326.69;1805461;78;20968;-60
2021/04/26 07:19:15;;;;;;;4.22;2.60;;;;;;;6.90;66.15;99322.90;1825964;78;20981;-58
2021/04/26 07:21:42;;;;;;;5.65;2.67;;;;;;;6.82;67.39;99325.74;1814317;79;21108;-59
2021/04/26 07:24:11;;;;;;;6.30;2.62;;;;;;;7.20;71.18;99313.38;1815644;79;21065;-58
2021/04/26 07:26:39;;;;;;;11.83;2.58;;;;;;;7.20;71.18;99313.38;1831779;78;21191;-67
2021/04/26 07:29:06;;;;;;;4.92;2.00;;;;;;;7.58;69.45;99308.58;1814978;78;20955;-66
2021/04/26 07:31:34;;;;;;;5.08;1.80;;;;;;;8.00;66.21;99306.69;1783824;79;20945;-65
2021/04/26 07:34:02;;;;;;;3.55;2.10;;;;;;;8.35;63.56;99304.58;1815559;79;21021;-68
2021/04/26 07:36:31;;;;;;;3.87;2.02;;;;;;;8.49;60.00;99316.86;1829170;78;20998;-65
2021/04/26 07:38:59;;;;;;;4.37;1.87;;;;;;;8.40;56.31;99300.37;1848958;77;21383;-68
2021/04/26 07:41:27;;;;;;;2.22;1.32;;;;;;;8.12;53.43;99313.78;1792839;79;21532;-66
2021/04/26 07:43:54;;;;;;;2.70;1.30;;;;;;;7.75;48.26;99303.34;1781758;80;21037;-67
2021/04/26 07:46:23;;;;;;;1.20;0.80;;;;;;;7.53;48.50;99313.58;1802760;78;20998;-71
2021/04/26 07:48:52;;;;;;;6.35;1.45;;;;;;;7.54;50.38;99322.58;1815567;79;21029;-66
2021/04/26 07:51:20;;;;;;;3.12;1.40;;;;;;;7.61;49.09;99318.91;1815594;79;21359;-65
2021/04/26 07:53:47;;;;;;;1.92;1.25;;;;;;;7.84;50.18;99315.74;1831731;78;20937;-68
2021/04/26 07:56:15;;;;;;;8.05;3.98;;;;;;;8.28;51.23;99314.53;1815615;79;21136;-67
2021/04/26 07:58:43;;;;;;;3.52;1.45;;;;;;;8.92;51.00;99318.59;1800250;79;20998;-65
2021/04/26 08:01:11;;;;;;;1.85;0.90;;;;;;;9.51;47.22;99306.39;1799034;79;20934;-73
2021/04/26 08:03:39;;;;;;;1.82;1.10;;;;;;;10.01;45.39;99305.30;1793646;78;21193;-71
2021/04/26 08:06:07;;;;;;;2.00;1.05;;;;;;;10.42;44.85;99311.78;1792068;79;20953;-71
2021/04/26 08:08:35;;;;;;;4.00;1.00;;;;;;;10.76;42.49;99309.65;1791239;79;21119;-72
2021/04/26 08:11:03;;;;;;;5.03;1.20;;;;;;;11.09;40.83;99305.82;1784577;80;21054;-62
2021/04/26 08:13:31;;;;;;;5.33;2.42;;;;;;;11.17;37.29;99314.05;1785406;80;20910;-63
2021/04/26 08:16:00;;;;;;;1.42;0.93;;;;;;;10.94;39.05;99322.82;1810441;79;21185;-62
2021/04/26 08:18:29;;;;;;;10.45;4.97;;;;;;;10.39;35.92;99316.57;1788296;79;22331;-78
2021/04/26 08:20:57;;;;;;;7.17;2.67;;;;;;;9.84;36.57;99317.81;1807228;79;20971;-76
2021/04/26 08:23:25;;;;;;;6.17;1.82;;;;;;;9.77;36.75;99312.57;1791524;79;21129;-73
2021/04/26 08:25:53;;;;;;;42.43;15.28;;;;;;;10.18;41.78;99316.33;1805007;79;21542;-79
2021/04/26 08:28:23;;;;;;;24.20;9.60;;;;;;;10.66;38.28;99309.97;1773172;81;21193;-82
2021/04/26 08:30:50;;;;;;;7.92;3.47;;;;;;;10.79;38.57;99304.32;1805002;79;20948;-80
2021/04/26 08:33:18;;;;;;;3.00;1.70;;;;;;;10.67;37.38;99317.88;1773199;81;21062;-82
2021/04/26 08:35:46;;;;;;;13.68;1.92;;;;;;;10.53;34.80;99313.91;1804954;79;21026;-83
2021/04/26 08:38:15;;;;;;;2.20;1.05;;;;;;;10.60;38.13;99313.43;1772986;80;21007;-63
2021/04/26 08:40:42;;;;;;;4.10;2.05;;;;;;;10.73;36.32;99309.73;1805018;79;21183;-64
2021/04/26 08:43:12;;;;;;;2.22;1.30;;;;;;;10.99;36.19;99312.45;1772367;80;21141;-63
2021/04/26 08:45:40;;;;;;;3.62;0.95;;;;;;;11.38;35.25;99319.68;1804990;79;20935;-64
2021/04/26 08:48:08;;;;;;;2.42;0.98;;;;;;;11.80;36.11;99309.70;1773259;81;20904;-64
2021/04/26 08:50:36;;;;;;;2.55;1.10;;;;;;;12.16;35.54;99317.45;1805025;79;20936;-63
2021/04/26 08:53:03;;;;;;;2.30;1.00;;;;;;;12.52;36.34;99316.92;1773261;81;22252;-63
2021/04/26 08:55:31;;;;;;;2.77;1.27;;;;;;;12.69;36.11;99319.33;1804923;79;20956;-64
2021/04/26 08:57:59;;;;;;;4.40;1.42;;;;;;;12.89;35.91;99326.77;1783059;79;21494;-64
2021/04/26 09:00:26;;;;;;;6.97;1.50;;;;;;;13.05;35.31;99326.39;1780072;80;21556;-64
2021/04/26 09:02:56;;;;;;;3.08;1.42;;;;;;;12.89;35.61;99328.95;1814172;79;20936;-64
2021/04/26 09:05:34;;;;;;;2.10;1.17;;;;;;;12.52;35.58;99323.80;1786370;79;21361;-64
2021/04/26 09:08:05;;;;;;;2.02;0.80;;;;;;;12.13;35.04;99331.09;1784767;80;20959;-64
2021/04/26 09:10:46;;;;;;;2.77;1.32;;;;;;;11.61;31.46;99327.12;1814386;79;21556;-63
2021/04/26 09:13:41;;;;;;;7.28;1.30;;;;;;;11.07;35.42;99335.55;1786564;80;21584;-64
2021/04/26 09:16:16;;;;;;;4.47;1.02;;;;;;;10.57;36.21;99343.70;1784871;80;20927;-64
2021/04/26 09:19:00;;;;;;;1.87;1.20;;;;;;;10.09;38.35;99341.55;1814041;79;22240;-64
2021/04/26 09:21:37;;;;;;;2.15;1.10;;;;;;;9.76;37.34;99341.91;1786465;79;21045;-65
2021/04/26 09:27:10;;;;;;;1.70;1.00;;;;;;;9.61;35.00;99335.47;1880379;76;22681;-62
2021/04/26 09:29:39;;;;;;;6.37;1.30;;;;;;;9.86;35.26;99334.75;1840610;77;21045;-60
2021/04/26 09:32:14;;;;;;;2.00;0.90;;;;;;;10.33;34.56;99324.14;1817219;77;21192;-59
2021/04/26 09:34:52;;;;;;;3.02;1.05;;;;;;;10.59;35.79;99327.72;1843743;77;21564;-59
2021/04/26 09:37:29;;;;;;;1.57;0.90;;;;;;;10.64;33.35;99334.19;1835853;77;20994;-62
2021/04/26 09:40:07;;;;;;;5.00;1.00;;;;;;;10.33;31.48;99333.75;1848922;77;21468;-59
2021/04/26 09:42:46;;;;;;;1.27;1.00;;;;;;;10.04;34.40;99338.95;1820159;77;21532;-61
2021/04/26 09:45:27;;;;;;;3.05;1.10;;;;;;;9.96;32.93;99332.86;1816628;79;21349;-64
2021/04/26 09:48:14;;;;;;;1.83;0.90;;;;;;;9.90;36.12;99338.48;1816872;79;20961;-62
2021/04/26 09:51:06;;;;;;;3.10;1.10;;;;;;;9.89;33.97;99336.87;1815928;79;21044;-63
2021/04/26 09:53:39;;;;;;;2.90;1.25;;;;;;;9.93;33.79;99331.00;1816429;79;21021;-63
2021/04/26 09:56:41;;;;;;;2.70;1.30;;;;;;;10.37;33.44;99329.80;1876738;75;22789;-63
2021/04/26 09:59:13;;;;;;;2.65;1.00;;;;;;;10.74;31.87;99322.89;1845235;76;20997;-63
2021/04/26 10:01:42;;;;;;;4.80;0.90;;;;;;;11.14;35.42;99337.25;1812161;78;21195;-63
2021/04/26 10:04:11;;;;;;;3.90;0.90;;;;;;;11.36;31.48;99323.32;1814942;78;21552;-63
2021/04/26 10:06:40;;;;;;;2.02;0.93;;;;;;;11.36;30.52;99322.52;1816574;78;21048;-63
2021/04/26 10:09:10;;;;;;;2.30;1.00;;;;;;;11.18;30.65;99332.72;1767611;79;21131;-62
2021/04/26 10:11:38;;;;;;;1.00;0.90;;;;;;;11.02;31.37;99331.03;1778410;79;20993;-63
2021/04/26 10:14:17;;;;;;;3.08;1.70;;;;;;;10.83;30.51;99341.55;1775397;80;22284;-62
2021/04/26 10:17:07;;;;;;;3.70;1.62;;;;;;;10.58;30.02;99333.53;1773755;80;21114;-62
2021/04/26 10:19:50;;;;;;;4.05;0.90;;;;;;;10.43;31.90;99345.77;1782052;79;21023;-64
2021/04/26 10:22:38;;;;;;;1.35;0.80;;;;;;;10.35;31.44;99337.55;1786885;79;21176;-63
2021/04/26 10:25:08;;;;;;;5.40;1.25;;;;;;;10.32;32.53;99335.44;1784942;79;21102;-61
2021/04/26 10:27:44;;;;;;;3.08;1.30;;;;;;;10.49;33.72;99339.00;1790164;79;21433;-63
2021/04/26 10:30:16;;;;;;;4.00;1.40;;;;;;;10.78;31.84;99330.73;1796485;79;21129;-63
2021/04/26 10:33:03;;;;;;;2.20;1.00;;;;;;;10.94;34.74;99336.55;1783441;79;21091;-63
2021/04/26 10:35:50;;;;;;;2.02;1.15;;;;;;;11.12;32.04;99344.44;1781479;78;21067;-63
2021/04/26 10:38:46;;;;;;;6.03;1.75;;;;;;;11.12;30.79;99336.77;1793235;79;21547;-63
2021/04/26 10:41:54;;;;;;;1.62;1.10;;;;;;;10.92;31.79;99341.00;1776760;80;21180;-63
2021/04/26 10:44:48;;;;;;;3.80;1.05;;;;;;;10.69;29.34;99345.02;1742698;81;21548;-63
2021/04/26 10:47:24;;;;;;;1.72;1.10;;;;;;;10.35;31.61;99328.75;1774740;79;21171;-63
2021/04/26 10:50:15;;;;;;;6.08;2.10;;;;;;;10.27;30.30;99338.33;1780896;78;21146;-64
2021/04/26 10:52:54;;;;;;;2.85;1.12;;;;;;;10.42;33.08;99327.69;1772102;80;21066;-64
2021/04/26 10:55:34;;;;;;;3.72;1.20;;;;;;;11.10;34.66;99329.41;1781521;80;21547;-63
2021/04/26 10:58:05;;;;;;;4.00;1.15;;;;;;;11.83;29.19;99333.80;1772436;80;20964;-63
2021/04/26 11:00:43;;;;;;;5.12;1.30;;;;;;;12.05;27.17;99331.37;1745280;80;21054;-64
2021/04/26 11:03:19;;;;;;;1.80;1.15;;;;;;;11.77;28.29;99330.19;1779009;80;21573;-64
2021/04/26 11:05:47;;;;;;;2.58;1.07;;;;;;;11.45;29.71;99327.43;1770497;80;20992;-61
2021/04/26 11:08:35;;;;;;;2.67;1.30;;;;;;;11.00;30.27;99333.30;1749220;81;21196;-63
2021/04/26 11:11:12;;;;;;;3.87;1.30;;;;;;;10.66;31.68;99334.67;1783619;80;21124;-61
2021/04/26 11:13:56;;;;;;;1.95;1.60;;;;;;;10.41;31.97;99331.56;1790116;78;21545;-62
2021/04/26 11:16:32;;;;;;;2.05;1.17;;;;;;;10.58;33.50;99340.39;1782915;79;21059;-60
2021/04/26 11:19:11;;;;;;;1.92;1.10;;;;;;;11.12;31.53;99340.88;1784796;79;21467;-61
2021/04/26 11:21:50;;;;;;;3.33;1.05;;;;;;;11.55;29.73;99316.09;1785542;79;21573;-62
2021/04/26 11:24:33;;;;;;;4.12;0.80;;;;;;;11.63;28.41;99352.34;1791247;79;20947;-61
2021/04/26 11:27:15;;;;;;;2.80;1.47;;;;;;;11.38;27.09;99325.75;1779179;80;20913;-61
2021/04/26 11:29:49;;;;;;;3.42;1.75;;;;;;;10.82;29.04;99339.94;1784869;79;20924;-61
2021/04/26 11:32:18;;;;;;;1.80;1.22;;;;;;;10.31;29.64;99342.05;1780145;79;21602;-63
2021/04/26 11:34:59;;;;;;;4.25;2.37;;;;;;;9.92;30.17;99338.16;1784980;80;21417;-63
2021/04/26 11:37:24;;;;;;;2.20;1.10;;;;;;;9.70;31.20;99346.47;1784567;80;20947;-62
2021/04/26 11:39:54;;;;;;;5.30;1.15;;;;;;;9.54;30.57;99342.76;1786055;80;21543;-62
2021/04/26 11:42:26;;;;;;;4.30;1.15;;;;;;;9.53;32.14;99339.77;1785651;80;21154;-67
2021/04/26 11:44:54;;;;;;;2.40;1.37;;;;;;;9.57;32.51;99329.80;1782250;80;21494;-67
2021/04/26 11:47:24;;;;;;;3.25;1.47;;;;;;;9.67;32.91;99340.25;1779629;80;21345;-66
2021/04/26 11:49:53;;;;;;;3.95;1.50;;;;;;;9.84;32.65;99334.83;1782859;80;20972;-67
2021/04/26 11:52:23;;;;;;;4.65;1.37;;;;;;;9.95;32.69;99338.91;1780458;80;21079;-68
2021/04/26 11:55:05;;;;;;;3.20;1.65;;;;;;;10.11;31.68;99344.78;1778341;80;21609;-63
2021/04/26 11:57:49;;;;;;;5.05;1.57;;;;;;;10.19;33.14;99335.23;1778348;80;20948;-64
2021/04/26 12:00:27;;;;;;;1.45;1.10;;;;;;;10.42;31.37;99335.91;1779376;79;21377;-64
2021/04/26 12:03:04;;;;;;;1.92;0.85;;;;;;;10.83;30.79;99324.52;1784561;80;20944;-62
2021/04/26 12:05:32;;;;;;;2.27;1.00;;;;;;;11.41;32.72;99316.28;1784645;79;20940;-61
2021/04/26 12:07:59;;;;;;;2.55;1.10;;;;;;;11.97;30.19;99303.33;1776207;80;20948;-61